createdAt,value
2016-12-07T00:00:44.913Z,981.71
2016-12-07T00:01:44.909Z,981.73
2016-12-07T00:02:44.905Z,981.71
2016-12-07T00:03:44.901Z,981.7
2016-12-07T00:04:44.897Z,981.67
2016-12-07T00:05:44.893Z,981.7
2016-12-07T00:06:44.889Z,981.7
2016-12-07T00:07:44.885Z,981.64
2016-12-07T00:08:44.881Z,981.64
2016-12-07T00:09:44.873Z,981.64
2016-12-07T00:10:44.869Z,981.67
2016-12-07T00:11:44.864Z,981.64
2016-12-07T00:12:44.862Z,981.69
2016-12-07T00:13:44.856Z,981.66
2016-12-07T00:14:44.852Z,981.71
2016-12-07T00:15:44.849Z,981.71
2016-12-07T00:16:44.841Z,981.68
2016-12-07T00:17:44.837Z,981.7
2016-12-07T00:18:44.833Z,981.76
2016-12-07T00:19:44.829Z,981.76
2016-12-07T00:20:44.825Z,981.78
2016-12-07T00:21:44.822Z,981.77
2016-12-07T00:22:44.818Z,981.8
2016-12-07T00:23:44.814Z,981.82
2016-12-07T00:24:44.810Z,981.83
2016-12-07T00:25:44.802Z,981.88
2016-12-07T00:26:44.799Z,981.85
2016-12-07T00:27:44.795Z,981.85
2016-12-07T00:28:44.791Z,981.88
2016-12-07T00:29:44.787Z,981.86
2016-12-07T00:30:44.783Z,981.88
2016-12-07T00:31:44.779Z,981.87
2016-12-07T00:32:44.775Z,981.9
2016-12-07T00:33:44.771Z,981.81
2016-12-07T00:34:44.764Z,981.82
2016-12-07T00:35:44.760Z,981.78
2016-12-07T00:36:44.756Z,981.8
2016-12-07T00:37:44.752Z,981.81
2016-12-07T00:38:44.748Z,981.84
2016-12-07T00:39:44.744Z,981.84
2016-12-07T00:40:44.741Z,981.84
2016-12-07T00:41:44.737Z,981.89
2016-12-07T00:42:44.728Z,981.89
2016-12-07T00:43:44.725Z,981.91
2016-12-07T00:44:44.721Z,981.93
2016-12-07T00:45:44.718Z,981.94
2016-12-07T00:46:44.713Z,981.88
2016-12-07T00:47:44.709Z,981.89
2016-12-07T00:48:44.706Z,981.84
2016-12-07T00:49:44.702Z,981.84
2016-12-07T00:50:44.698Z,981.81
2016-12-07T00:51:44.691Z,981.84
2016-12-07T00:52:44.687Z,981.89
2016-12-07T00:53:44.683Z,981.92
2016-12-07T00:54:44.679Z,981.9
2016-12-07T00:55:44.676Z,981.89
2016-12-07T00:56:44.672Z,981.88
2016-12-07T00:57:44.668Z,981.91
2016-12-07T00:58:44.664Z,981.93
2016-12-07T00:59:44.661Z,981.92
2016-12-07T01:00:44.653Z,981.94
2016-12-07T01:01:44.649Z,981.91
2016-12-07T01:02:44.645Z,981.91
2016-12-07T01:03:44.642Z,981.95
2016-12-07T01:04:44.638Z,981.92
2016-12-07T01:05:44.634Z,981.94
2016-12-07T01:06:44.630Z,982
2016-12-07T01:07:44.627Z,981.99
2016-12-07T01:08:44.619Z,982.05
2016-12-07T01:09:44.615Z,981.99
2016-12-07T01:10:44.611Z,982.1
2016-12-07T01:11:44.607Z,982.02
2016-12-07T01:12:44.604Z,982.05
2016-12-07T01:13:44.600Z,982.06
2016-12-07T01:14:44.596Z,982.04
2016-12-07T01:15:44.592Z,982.06
2016-12-07T01:16:44.585Z,982.1
2016-12-07T01:17:44.580Z,982.1
2016-12-07T01:18:44.577Z,982.12
2016-12-07T01:19:44.573Z,982.12
2016-12-07T01:20:44.570Z,982.13
2016-12-07T01:21:44.566Z,982.16
2016-12-07T01:22:44.562Z,982.16
2016-12-07T01:23:44.554Z,982.18
2016-12-07T01:24:44.550Z,982.21
2016-12-07T01:25:44.546Z,982.23
2016-12-07T01:26:44.543Z,982.23
2016-12-07T01:27:44.539Z,982.25
2016-12-07T01:28:44.535Z,982.22
2016-12-07T01:29:44.531Z,982.23
2016-12-07T01:30:44.524Z,982.23
2016-12-07T01:31:44.519Z,982.24
2016-12-07T01:32:44.516Z,982.29
2016-12-07T01:33:44.512Z,982.27
2016-12-07T01:34:44.508Z,982.28
2016-12-07T01:35:44.504Z,982.28
2016-12-07T01:36:44.496Z,982.33
2016-12-07T01:37:44.493Z,982.31
2016-12-07T01:38:44.489Z,982.32
2016-12-07T01:39:44.485Z,982.35
2016-12-07T01:40:44.482Z,982.32
2016-12-07T01:41:44.478Z,982.31
2016-12-07T01:42:44.474Z,982.31
2016-12-07T01:43:44.478Z,982.3
2016-12-07T01:44:44.461Z,982.28
2016-12-07T01:45:44.457Z,982.27
2016-12-07T01:46:44.453Z,982.26
2016-12-07T01:47:44.449Z,982.21
2016-12-07T01:48:44.445Z,982.21
2016-12-07T01:49:44.441Z,982.17
2016-12-07T01:50:44.433Z,982.2
2016-12-07T01:51:44.428Z,982.17
2016-12-07T01:52:44.425Z,982.21
2016-12-07T01:53:44.420Z,982.21
2016-12-07T01:54:44.417Z,982.22
2016-12-07T01:55:44.408Z,982.24
2016-12-07T01:56:44.404Z,982.28
2016-12-07T01:57:44.400Z,982.26
2016-12-07T01:58:44.396Z,982.28
2016-12-07T01:59:44.392Z,982.31
2016-12-07T02:00:44.388Z,982.29
2016-12-07T02:01:44.380Z,982.32
2016-12-07T02:02:44.375Z,982.31
2016-12-07T02:03:44.372Z,982.33
2016-12-07T02:04:44.368Z,982.33
2016-12-07T02:05:44.364Z,982.35
2016-12-07T02:06:44.355Z,982.39
2016-12-07T02:07:44.351Z,982.43
2016-12-07T02:08:44.347Z,982.45
2016-12-07T02:09:44.343Z,982.47
2016-12-07T02:10:44.339Z,982.47
2016-12-07T02:11:44.338Z,982.47
2016-12-07T02:12:44.328Z,982.48
2016-12-07T02:13:44.323Z,982.5
2016-12-07T02:14:44.319Z,982.54
2016-12-07T02:15:44.315Z,982.52
2016-12-07T02:16:44.311Z,982.51
2016-12-07T02:17:44.303Z,982.53
2016-12-07T02:18:44.299Z,982.53
2016-12-07T02:19:44.295Z,982.53
2016-12-07T02:20:44.291Z,982.55
2016-12-07T02:21:44.287Z,982.57
2016-12-07T02:22:44.284Z,982.59
2016-12-07T02:23:44.275Z,982.62
2016-12-07T02:24:44.271Z,982.64
2016-12-07T02:25:44.268Z,982.64
2016-12-07T02:26:44.264Z,982.62
2016-12-07T02:27:44.260Z,982.57
2016-12-07T02:28:44.252Z,982.57
2016-12-07T02:29:44.248Z,982.61
2016-12-07T02:30:44.244Z,982.57
2016-12-07T02:31:44.236Z,982.6
2016-12-07T02:32:44.233Z,982.58
2016-12-07T02:33:44.228Z,982.53
2016-12-07T02:34:44.224Z,982.54
2016-12-07T02:35:44.221Z,982.56
2016-12-07T02:36:44.217Z,982.59
2016-12-07T02:37:44.209Z,982.62
2016-12-07T02:38:44.205Z,982.63
2016-12-07T02:39:44.201Z,982.62
2016-12-07T02:40:44.197Z,982.59
2016-12-07T02:41:44.193Z,982.55
2016-12-07T02:42:44.185Z,982.53
2016-12-07T02:43:44.181Z,982.56
2016-12-07T02:44:44.178Z,982.56
2016-12-07T02:45:44.174Z,982.52
2016-12-07T02:46:44.170Z,982.59
2016-12-07T02:47:44.162Z,982.57
2016-12-07T02:48:44.158Z,982.56
2016-12-07T02:49:44.154Z,982.55
2016-12-07T02:50:44.150Z,982.58
2016-12-07T02:51:44.146Z,982.61
2016-12-07T02:52:44.138Z,982.61
2016-12-07T02:53:44.134Z,982.63
2016-12-07T02:54:44.134Z,982.65
2016-12-07T02:55:44.127Z,982.7
2016-12-07T02:56:44.123Z,982.7
2016-12-07T02:57:44.115Z,982.74
2016-12-07T02:58:44.111Z,982.74
2016-12-07T02:59:44.107Z,982.74
2016-12-07T03:00:44.100Z,982.75
2016-12-07T03:01:44.095Z,982.73
2016-12-07T03:02:44.091Z,982.77
2016-12-07T03:03:44.088Z,982.76
2016-12-07T03:04:44.084Z,982.77
2016-12-07T03:05:44.076Z,982.76
2016-12-07T03:06:44.072Z,982.79
2016-12-07T03:07:44.068Z,982.72
2016-12-07T03:08:44.064Z,982.71
2016-12-07T03:09:44.057Z,982.73
2016-12-07T03:10:44.053Z,982.73
2016-12-07T03:11:44.049Z,982.75
2016-12-07T03:12:44.044Z,982.73
2016-12-07T03:13:44.037Z,982.79
2016-12-07T03:14:44.033Z,982.78
2016-12-07T03:15:44.029Z,982.75
2016-12-07T03:16:44.025Z,982.75
2016-12-07T03:17:44.021Z,982.76
2016-12-07T03:18:44.013Z,982.73
2016-12-07T03:19:44.009Z,982.72
2016-12-07T03:20:44.005Z,982.66
2016-12-07T03:21:44.001Z,982.72
2016-12-07T03:22:43.994Z,982.68
2016-12-07T03:23:43.990Z,982.69
2016-12-07T03:24:43.986Z,982.71
2016-12-07T03:25:43.982Z,982.7
2016-12-07T03:26:43.974Z,982.7
2016-12-07T03:27:43.970Z,982.69
2016-12-07T03:28:43.966Z,982.73
2016-12-07T03:29:43.963Z,982.75
2016-12-07T03:30:43.955Z,982.77
2016-12-07T03:31:43.950Z,982.8
2016-12-07T03:32:43.947Z,982.8
2016-12-07T03:33:43.939Z,982.8
2016-12-07T03:34:43.935Z,982.82
2016-12-07T03:35:43.935Z,982.83
2016-12-07T03:36:43.927Z,982.81
2016-12-07T03:37:43.919Z,982.83
2016-12-07T03:38:43.915Z,982.85
2016-12-07T03:39:43.912Z,982.86
2016-12-07T03:40:43.907Z,982.86
2016-12-07T03:41:43.900Z,982.89
2016-12-07T03:42:43.896Z,982.87
2016-12-07T03:43:43.892Z,982.88
2016-12-07T03:44:43.888Z,982.89
2016-12-07T03:45:43.880Z,982.84
2016-12-07T03:46:43.876Z,982.84
2016-12-07T03:47:43.872Z,982.79
2016-12-07T03:48:43.868Z,982.82
2016-12-07T03:49:43.860Z,982.82
2016-12-07T03:50:43.856Z,982.86
2016-12-07T03:51:43.852Z,982.88
2016-12-07T03:52:43.853Z,982.9
2016-12-07T03:53:43.840Z,982.92
2016-12-07T03:54:43.837Z,982.9
2016-12-07T03:55:43.833Z,982.9
2016-12-07T03:56:43.829Z,982.88
2016-12-07T03:57:43.821Z,982.87
2016-12-07T03:58:43.818Z,982.88
2016-12-07T03:59:43.813Z,982.85
2016-12-07T04:00:43.809Z,982.9
2016-12-07T04:01:43.801Z,982.87
2016-12-07T04:02:43.797Z,982.88
2016-12-07T04:03:43.793Z,982.88
2016-12-07T04:04:43.785Z,982.87
2016-12-07T04:05:43.781Z,982.88
2016-12-07T04:06:43.777Z,982.83
2016-12-07T04:07:43.774Z,982.83
2016-12-07T04:08:43.766Z,982.86
2016-12-07T04:09:43.761Z,982.83
2016-12-07T04:10:43.758Z,982.84
2016-12-07T04:11:43.755Z,982.84
2016-12-07T04:12:43.746Z,982.79
2016-12-07T04:13:43.742Z,982.84
2016-12-07T04:14:43.738Z,982.82
2016-12-07T04:15:43.734Z,982.85
2016-12-07T04:16:43.730Z,982.85
2016-12-07T04:17:43.722Z,982.84
2016-12-07T04:18:43.718Z,982.81
2016-12-07T04:19:43.714Z,982.8
2016-12-07T04:20:43.711Z,982.77
2016-12-07T04:21:43.702Z,982.8
2016-12-07T04:22:43.698Z,982.78
2016-12-07T04:23:43.695Z,982.82
2016-12-07T04:24:43.687Z,982.8
2016-12-07T04:25:43.683Z,982.83
2016-12-07T04:26:43.679Z,982.77
2016-12-07T04:27:43.675Z,982.76
2016-12-07T04:28:43.667Z,982.75
2016-12-07T04:29:43.663Z,982.77
2016-12-07T04:30:43.659Z,982.74
2016-12-07T04:31:43.655Z,982.76
2016-12-07T04:32:43.647Z,982.76
2016-12-07T04:33:43.643Z,982.73
2016-12-07T04:34:43.639Z,982.7
2016-12-07T04:35:43.631Z,982.7
2016-12-07T04:36:43.628Z,982.72
2016-12-07T04:37:43.624Z,982.7
2016-12-07T04:38:43.620Z,982.69
2016-12-07T04:39:43.612Z,982.73
2016-12-07T04:40:43.608Z,982.73
2016-12-07T04:41:43.604Z,982.7
2016-12-07T04:42:43.599Z,982.74
2016-12-07T04:43:43.591Z,982.74
2016-12-07T04:44:43.587Z,982.73
2016-12-07T04:45:43.584Z,982.76
2016-12-07T04:46:43.580Z,982.79
2016-12-07T04:47:43.572Z,982.75
2016-12-07T04:48:43.568Z,982.74
2016-12-07T04:49:43.564Z,982.77
2016-12-07T04:50:43.560Z,982.78
2016-12-07T04:51:43.552Z,982.79
2016-12-07T04:52:43.548Z,982.79
2016-12-07T04:53:43.544Z,982.75
2016-12-07T04:54:43.540Z,982.77
2016-12-07T04:55:43.532Z,982.72
2016-12-07T04:56:43.528Z,982.82
2016-12-07T04:57:43.524Z,982.81
2016-12-07T04:58:43.520Z,982.83
2016-12-07T04:59:43.512Z,982.81
2016-12-07T05:00:43.508Z,982.84
2016-12-07T05:01:43.504Z,982.89
2016-12-07T05:02:43.500Z,982.9
2016-12-07T05:03:43.493Z,982.91
2016-12-07T05:04:43.488Z,982.95
2016-12-07T05:05:43.485Z,982.95
2016-12-07T05:06:43.480Z,982.97
2016-12-07T05:07:43.473Z,982.98
2016-12-07T05:08:43.468Z,982.99
2016-12-07T05:09:43.465Z,982.98
2016-12-07T05:10:43.461Z,982.98
2016-12-07T05:11:43.453Z,982.97
2016-12-07T05:12:43.449Z,982.97
2016-12-07T05:13:43.445Z,982.97
2016-12-07T05:14:43.441Z,982.94
2016-12-07T05:15:43.437Z,982.94
2016-12-07T05:16:43.428Z,982.93
2016-12-07T05:17:43.424Z,982.94
2016-12-07T05:18:43.420Z,982.96
2016-12-07T05:19:43.412Z,982.93
2016-12-07T05:20:43.408Z,982.94
2016-12-07T05:21:43.404Z,982.93
2016-12-07T05:22:43.400Z,982.98
2016-12-07T05:23:43.392Z,982.99
2016-12-07T05:24:43.388Z,983.04
2016-12-07T05:25:43.384Z,983.07
2016-12-07T05:26:43.380Z,983.05
2016-12-07T05:27:43.372Z,983.05
2016-12-07T05:28:43.368Z,983.09
2016-12-07T05:29:43.370Z,983.07
2016-12-07T05:30:43.360Z,983.07
2016-12-07T05:31:43.356Z,983.1
2016-12-07T05:32:43.348Z,983.09
2016-12-07T05:33:43.345Z,983.08
2016-12-07T05:34:43.339Z,983.09
2016-12-07T05:35:43.336Z,983.05
2016-12-07T05:36:43.332Z,983
2016-12-07T05:37:43.324Z,983.01
2016-12-07T05:38:43.320Z,982.96
2016-12-07T05:39:43.316Z,982.95
2016-12-07T05:40:43.311Z,982.95
2016-12-07T05:41:43.304Z,982.9
2016-12-07T05:42:43.300Z,982.93
2016-12-07T05:43:43.299Z,982.94
2016-12-07T05:44:43.292Z,982.95
2016-12-07T05:45:43.284Z,982.92
2016-12-07T05:46:43.280Z,982.94
2016-12-07T05:47:43.276Z,982.92
2016-12-07T05:48:43.271Z,982.89
2016-12-07T05:49:43.268Z,982.88
2016-12-07T05:50:43.265Z,982.86
2016-12-07T05:51:43.256Z,982.86
2016-12-07T05:52:43.251Z,982.84
2016-12-07T05:53:43.248Z,982.86
2016-12-07T05:54:43.244Z,982.82
2016-12-07T05:55:43.239Z,982.84
2016-12-07T05:56:43.232Z,982.85
2016-12-07T05:57:43.228Z,982.82
2016-12-07T05:58:43.223Z,982.82
2016-12-07T05:59:43.221Z,982.72
2016-12-07T06:00:43.212Z,982.74
2016-12-07T06:01:43.208Z,982.76
2016-12-07T06:02:43.204Z,982.78
2016-12-07T06:03:43.200Z,982.79
2016-12-07T06:04:43.196Z,982.78
2016-12-07T06:05:43.191Z,982.81
2016-12-07T06:06:43.184Z,982.81
2016-12-07T06:07:43.180Z,982.85
2016-12-07T06:08:43.176Z,982.83
2016-12-07T06:09:43.172Z,982.85
2016-12-07T06:10:43.164Z,982.87
2016-12-07T06:11:43.160Z,982.88
2016-12-07T06:12:43.156Z,982.87
2016-12-07T06:13:43.153Z,982.91
2016-12-07T06:14:43.147Z,982.91
2016-12-07T06:15:43.144Z,982.92
2016-12-07T06:16:43.135Z,982.94
2016-12-07T06:17:43.131Z,982.95
2016-12-07T06:18:43.127Z,982.97
2016-12-07T06:19:43.123Z,982.97
2016-12-07T06:20:43.119Z,982.99
2016-12-07T06:21:43.111Z,982.98
2016-12-07T06:22:43.107Z,982.96
2016-12-07T06:23:43.103Z,982.98
2016-12-07T06:24:43.099Z,982.99
2016-12-07T06:25:43.095Z,983.01
2016-12-07T06:26:43.087Z,983.02
2016-12-07T06:27:43.083Z,983.05
2016-12-07T06:28:43.079Z,982.97
2016-12-07T06:29:43.075Z,983.01
2016-12-07T06:30:43.071Z,983
2016-12-07T06:31:43.067Z,982.99
2016-12-07T06:32:43.059Z,982.98
2016-12-07T06:33:43.055Z,982.98
2016-12-07T06:34:43.050Z,982.97
2016-12-07T06:35:43.047Z,982.98
2016-12-07T06:36:43.039Z,982.97
2016-12-07T06:37:43.035Z,983
2016-12-07T06:38:43.030Z,983.03
2016-12-07T06:39:43.026Z,983.06
2016-12-07T06:40:43.018Z,983.01
2016-12-07T06:41:43.015Z,983.03
2016-12-07T06:42:43.010Z,983.04
2016-12-07T06:43:43.006Z,983.08
2016-12-07T06:44:43.003Z,983.07
2016-12-07T06:45:42.994Z,983.08
2016-12-07T06:46:42.990Z,983.04
2016-12-07T06:47:42.986Z,983.05
2016-12-07T06:48:42.983Z,983.05
2016-12-07T06:49:42.978Z,983
2016-12-07T06:50:42.970Z,983.03
2016-12-07T06:51:42.970Z,983.06
2016-12-07T06:52:42.962Z,983.03
2016-12-07T06:53:42.958Z,983.06
2016-12-07T06:54:42.950Z,983.03
2016-12-07T06:55:42.946Z,983.02
2016-12-07T06:56:42.943Z,983.01
2016-12-07T06:57:42.939Z,982.99
2016-12-07T06:58:42.931Z,983.01
2016-12-07T06:59:42.927Z,983.02
2016-12-07T07:00:42.922Z,983.04
2016-12-07T07:01:42.919Z,983
2016-12-07T07:02:42.914Z,982.97
2016-12-07T07:03:42.907Z,983.01
2016-12-07T07:04:42.902Z,983.02
2016-12-07T07:05:42.899Z,983.04
2016-12-07T07:06:42.894Z,983.01
2016-12-07T07:07:42.890Z,983.01
2016-12-07T07:08:42.882Z,983.02
2016-12-07T07:09:42.879Z,983.02
2016-12-07T07:10:42.875Z,983.06
2016-12-07T07:11:42.871Z,983.04
2016-12-07T07:12:42.866Z,983.08
2016-12-07T07:13:42.859Z,983.1
2016-12-07T07:14:43.054Z,983.09
2016-12-07T07:15:42.851Z,983.11
2016-12-07T07:16:42.846Z,983.13
2016-12-07T07:17:42.838Z,983.14
2016-12-07T07:18:42.835Z,983.14
2016-12-07T07:19:42.831Z,983.19
2016-12-07T07:20:42.827Z,983.21
2016-12-07T07:21:42.822Z,983.23
2016-12-07T07:22:42.815Z,983.25
2016-12-07T07:23:42.810Z,983.25
2016-12-07T07:24:42.959Z,983.26
2016-12-07T07:25:42.803Z,983.28
2016-12-07T07:26:42.799Z,983.28
2016-12-07T07:27:42.795Z,983.3
2016-12-07T07:28:42.787Z,983.28
2016-12-07T07:29:42.783Z,983.27
2016-12-07T07:30:42.779Z,983.28
2016-12-07T07:31:42.775Z,983.23
2016-12-07T07:32:42.771Z,983.23
2016-12-07T07:33:42.768Z,983.32
2016-12-07T07:34:42.759Z,983.31
2016-12-07T07:35:42.755Z,983.32
2016-12-07T07:36:42.751Z,983.35
2016-12-07T07:37:42.747Z,983.36
2016-12-07T07:38:42.743Z,983.35
2016-12-07T07:39:42.736Z,983.38
2016-12-07T07:40:42.731Z,983.41
2016-12-07T07:41:42.728Z,983.34
2016-12-07T07:42:42.723Z,983.36
2016-12-07T07:43:42.719Z,983.4
2016-12-07T07:44:42.716Z,983.38
2016-12-07T07:45:42.708Z,983.4
2016-12-07T07:46:42.704Z,983.39
2016-12-07T07:47:42.700Z,983.38
2016-12-07T07:48:42.696Z,983.4
2016-12-07T07:49:42.692Z,983.4
2016-12-07T07:50:42.687Z,983.38
2016-12-07T07:51:42.684Z,983.35
2016-12-07T07:52:42.680Z,983.37
2016-12-07T07:53:42.672Z,983.36
2016-12-07T07:54:42.668Z,983.36
2016-12-07T07:55:42.664Z,983.36
2016-12-07T07:56:42.660Z,983.37
2016-12-07T07:57:42.656Z,983.32
2016-12-07T07:58:42.652Z,983.32
2016-12-07T07:59:42.648Z,983.33
2016-12-07T08:00:42.640Z,983.31
2016-12-07T08:01:42.636Z,983.33
2016-12-07T08:02:42.632Z,983.3
2016-12-07T08:03:42.628Z,983.3
2016-12-07T08:04:42.773Z,983.33
2016-12-07T08:05:42.621Z,983.33
2016-12-07T08:06:42.616Z,983.31
2016-12-07T08:07:42.609Z,983.34
2016-12-07T08:08:42.605Z,983.41
2016-12-07T08:09:42.901Z,983.36
2016-12-07T08:10:42.597Z,983.37
2016-12-07T08:11:42.593Z,983.41
2016-12-07T08:12:42.589Z,983.42
2016-12-07T08:13:42.585Z,983.44
2016-12-07T08:14:42.581Z,983.36
2016-12-07T08:15:42.573Z,983.39
2016-12-07T08:16:42.569Z,983.39
2016-12-07T08:17:42.565Z,983.39
2016-12-07T08:18:42.561Z,983.35
2016-12-07T08:19:42.556Z,983.4
2016-12-07T08:20:42.553Z,983.35
2016-12-07T08:21:42.549Z,983.33
2016-12-07T08:22:42.545Z,983.36
2016-12-07T08:23:42.541Z,983.34
2016-12-07T08:24:42.537Z,983.38
2016-12-07T08:25:42.533Z,983.36
2016-12-07T08:26:42.525Z,983.38
2016-12-07T08:27:42.521Z,983.39
2016-12-07T08:28:42.517Z,983.36
2016-12-07T08:29:42.513Z,983.4
2016-12-07T08:30:42.510Z,983.4
2016-12-07T08:31:42.505Z,983.37
2016-12-07T08:32:42.502Z,983.37
2016-12-07T08:33:42.497Z,983.37
2016-12-07T08:34:42.494Z,983.38
2016-12-07T08:35:42.489Z,983.35
2016-12-07T08:36:42.486Z,983.34
2016-12-07T08:37:42.477Z,983.32
2016-12-07T08:38:42.474Z,983.35
2016-12-07T08:39:42.474Z,983.35
2016-12-07T08:40:42.466Z,983.33
2016-12-07T08:41:42.462Z,983.32
2016-12-07T08:42:42.458Z,983.34
2016-12-07T08:43:42.454Z,983.36
2016-12-07T08:44:42.450Z,983.34
2016-12-07T08:45:42.446Z,983.36
2016-12-07T08:46:42.442Z,983.34
2016-12-07T08:47:42.438Z,983.34
2016-12-07T08:48:42.434Z,983.37
2016-12-07T08:49:42.430Z,983.34
2016-12-07T08:50:42.426Z,983.34
2016-12-07T08:51:42.423Z,983.31
2016-12-07T08:52:42.418Z,983.39
2016-12-07T08:53:42.414Z,983.39
2016-12-07T08:54:42.410Z,983.41
2016-12-07T08:55:42.407Z,983.42
2016-12-07T08:56:42.403Z,983.42
2016-12-07T08:57:42.399Z,983.44
2016-12-07T08:58:42.396Z,983.43
2016-12-07T08:59:42.391Z,983.46
2016-12-07T09:00:42.387Z,983.45
2016-12-07T09:01:42.383Z,983.48
2016-12-07T09:02:42.379Z,983.48
2016-12-07T09:03:42.378Z,983.5
2016-12-07T09:04:42.371Z,983.52
2016-12-07T09:05:42.367Z,983.55
2016-12-07T09:06:42.363Z,983.54
2016-12-07T09:07:42.359Z,983.56
2016-12-07T09:08:42.355Z,983.55
2016-12-07T09:09:42.351Z,983.57
2016-12-07T09:10:42.347Z,983.57
2016-12-07T09:11:42.343Z,983.59
2016-12-07T09:12:42.339Z,983.59
2016-12-07T09:13:42.335Z,983.63
2016-12-07T09:14:42.332Z,983.6
2016-12-07T09:15:42.328Z,983.64
2016-12-07T09:16:42.324Z,983.63
2016-12-07T09:17:42.320Z,983.61
2016-12-07T09:18:42.316Z,983.62
2016-12-07T09:19:42.312Z,983.66
2016-12-07T09:20:42.309Z,983.63
2016-12-07T09:21:42.304Z,983.63
2016-12-07T09:22:42.300Z,983.61
2016-12-07T09:23:42.296Z,983.63
2016-12-07T09:24:42.292Z,983.62
2016-12-07T09:25:42.289Z,983.6
2016-12-07T09:26:42.284Z,983.63
2016-12-07T09:27:42.280Z,983.61
2016-12-07T09:28:42.276Z,983.62
2016-12-07T09:29:42.272Z,983.58
2016-12-07T09:30:42.268Z,983.57
2016-12-07T09:31:42.265Z,983.58
2016-12-07T09:32:42.261Z,983.56
2016-12-07T09:33:42.256Z,983.55
2016-12-07T09:34:42.252Z,983.55
2016-12-07T09:35:42.249Z,983.53
2016-12-07T09:36:42.245Z,983.57
2016-12-07T09:37:42.240Z,983.53
2016-12-07T09:38:42.241Z,983.55
2016-12-07T09:39:42.233Z,983.53
2016-12-07T09:40:42.232Z,983.53
2016-12-07T09:41:42.229Z,983.49
2016-12-07T09:42:42.224Z,983.47
2016-12-07T09:43:42.221Z,983.41
2016-12-07T09:44:42.217Z,983.45
2016-12-07T09:45:42.213Z,983.38
2016-12-07T09:46:42.209Z,983.39
2016-12-07T09:47:42.205Z,983.34
2016-12-07T09:48:42.201Z,983.39
2016-12-07T09:49:42.197Z,983.38
2016-12-07T09:50:42.193Z,983.4
2016-12-07T09:51:42.189Z,983.42
2016-12-07T09:52:42.185Z,983.42
2016-12-07T09:53:42.181Z,983.41
2016-12-07T09:54:42.178Z,983.41
2016-12-07T09:55:42.173Z,983.4
2016-12-07T09:56:42.173Z,983.42
2016-12-07T09:57:42.169Z,983.41
2016-12-07T09:58:42.166Z,983.42
2016-12-07T09:59:42.362Z,983.45
2016-12-07T10:00:42.158Z,983.42
2016-12-07T10:01:42.154Z,983.43
2016-12-07T10:02:42.150Z,983.45
2016-12-07T10:03:42.146Z,983.49
2016-12-07T10:04:42.142Z,983.46
2016-12-07T10:05:42.138Z,983.45
2016-12-07T10:06:42.134Z,983.42
2016-12-07T10:07:42.134Z,983.45
2016-12-07T10:08:42.126Z,983.38
2016-12-07T10:09:42.126Z,983.4
2016-12-07T10:10:42.122Z,983.34
2016-12-07T10:11:42.119Z,983.34
2016-12-07T10:12:42.114Z,983.33
2016-12-07T10:13:42.110Z,983.3
2016-12-07T10:14:42.106Z,983.35
2016-12-07T10:15:42.102Z,983.35
2016-12-07T10:16:42.098Z,983.32
2016-12-07T10:17:42.094Z,983.35
2016-12-07T10:18:42.095Z,983.33
2016-12-07T10:19:42.090Z,983.29
2016-12-07T10:20:42.087Z,983.31
2016-12-07T10:21:42.083Z,983.28
2016-12-07T10:22:42.079Z,983.28
2016-12-07T10:23:42.075Z,983.26
2016-12-07T10:24:42.071Z,983.24
2016-12-07T10:25:42.067Z,983.23
2016-12-07T10:26:42.063Z,983.2
2016-12-07T10:27:42.059Z,983.23
2016-12-07T10:28:42.059Z,983.23
2016-12-07T10:29:42.056Z,983.2
2016-12-07T10:30:42.051Z,983.23
2016-12-07T10:31:42.047Z,983.19
2016-12-07T10:32:42.044Z,983.22
2016-12-07T10:33:42.039Z,983.21
2016-12-07T10:34:42.040Z,983.19
2016-12-07T10:35:42.036Z,983.18
2016-12-07T10:36:42.031Z,983.12
2016-12-07T10:37:42.028Z,983.14
2016-12-07T10:38:42.024Z,983.15
2016-12-07T10:39:42.020Z,983.14
2016-12-07T10:40:42.020Z,983.09
2016-12-07T10:41:42.016Z,983.08
2016-12-07T10:42:42.012Z,983.05
2016-12-07T10:43:42.008Z,983.01
2016-12-07T10:44:42.004Z,983.04
2016-12-07T10:45:42.000Z,982.99
2016-12-07T10:46:41.996Z,982.99
2016-12-07T10:47:41.996Z,982.97
2016-12-07T10:48:41.992Z,982.98
2016-12-07T10:49:41.988Z,982.98
2016-12-07T10:50:41.984Z,982.91
2016-12-07T10:51:41.980Z,982.94
2016-12-07T10:52:41.976Z,982.88
2016-12-07T10:53:41.977Z,982.93
2016-12-07T10:54:41.972Z,982.9
2016-12-07T10:55:41.969Z,982.88
2016-12-07T10:56:41.965Z,982.84
2016-12-07T10:57:41.961Z,982.82
2016-12-07T10:58:41.957Z,982.86
2016-12-07T10:59:41.957Z,982.83
2016-12-07T11:00:41.954Z,982.81
2016-12-07T11:01:41.949Z,982.83
2016-12-07T11:02:41.945Z,982.79
2016-12-07T11:03:41.941Z,982.78
2016-12-07T11:04:41.941Z,982.82
2016-12-07T11:05:41.937Z,982.79
2016-12-07T11:06:41.933Z,982.79
2016-12-07T11:07:41.929Z,982.78
2016-12-07T11:08:41.925Z,982.76
2016-12-07T11:09:41.925Z,982.78
2016-12-07T11:10:41.921Z,982.76
2016-12-07T11:11:41.918Z,982.76
2016-12-07T11:12:41.913Z,982.79
2016-12-07T11:13:41.910Z,982.75
2016-12-07T11:14:41.906Z,982.75
2016-12-07T11:15:41.906Z,982.74
2016-12-07T11:16:41.901Z,982.73
2016-12-07T11:19:39.962Z,982.73
2016-12-07T11:20:39.958Z,982.71
2016-12-07T11:21:39.954Z,982.68
2016-12-07T11:22:39.950Z,982.7
2016-12-07T11:23:39.950Z,982.66
2016-12-07T11:24:39.946Z,982.67
2016-12-07T11:25:39.943Z,982.62
2016-12-07T11:26:39.938Z,982.62
2016-12-07T11:27:39.939Z,982.59
2016-12-07T11:28:39.934Z,982.58
2016-12-07T11:29:39.931Z,982.62
2016-12-07T11:30:39.927Z,982.56
2016-12-07T11:31:39.927Z,982.6
2016-12-07T11:32:39.923Z,982.58
2016-12-07T11:33:39.919Z,982.54
2016-12-07T11:34:39.915Z,982.55
2016-12-07T11:35:39.915Z,982.54
2016-12-07T11:36:39.911Z,982.52
2016-12-07T11:37:39.907Z,982.55
2016-12-07T11:38:39.903Z,982.49
2016-12-07T11:39:39.903Z,982.5
2016-12-07T11:40:39.899Z,982.47
2016-12-07T11:41:39.896Z,982.4
2016-12-07T11:42:39.892Z,982.41
2016-12-07T11:43:39.887Z,982.38
2016-12-07T11:44:39.888Z,982.35
2016-12-07T11:45:39.883Z,982.33
2016-12-07T11:46:46.143Z,982.31
2016-12-07T11:49:57.437Z,982.28
2016-12-07T11:50:57.433Z,982.28
2016-12-07T11:51:57.433Z,982.3
2016-12-07T11:52:57.437Z,982.35
2016-12-07T11:53:57.432Z,982.38
2016-12-07T11:54:57.580Z,982.31
2016-12-07T11:55:57.428Z,982.33
2016-12-07T11:56:57.427Z,982.35
2016-12-07T11:57:57.420Z,982.32
2016-12-07T11:58:57.420Z,982.31
2016-12-07T11:59:57.416Z,982.34
2016-12-07T12:00:57.412Z,982.28
2016-12-07T12:01:57.408Z,982.32
2016-12-07T12:02:57.410Z,982.3
2016-12-07T12:03:57.404Z,982.26
2016-12-07T12:04:57.396Z,982.26
2016-12-07T12:05:57.396Z,982.26
2016-12-07T12:06:57.397Z,982.26
2016-12-07T12:07:57.392Z,982.28
2016-12-07T12:08:57.389Z,982.28
2016-12-07T12:09:57.385Z,982.31
2016-12-07T12:10:57.385Z,982.33
2016-12-07T12:11:57.380Z,982.33
2016-12-07T12:12:57.373Z,982.33
2016-12-07T12:13:57.377Z,982.36
2016-12-07T12:14:57.369Z,982.37
2016-12-07T12:15:57.373Z,982.39
2016-12-07T12:16:57.365Z,982.4
2016-12-07T12:17:57.368Z,982.41
2016-12-07T12:18:57.361Z,982.4
2016-12-07T12:19:57.361Z,982.41
2016-12-07T12:20:57.357Z,982.44
2016-12-07T12:21:57.349Z,982.49
2016-12-07T12:22:57.353Z,982.47
2016-12-07T12:23:57.345Z,982.44
2016-12-07T12:24:57.345Z,982.47
2016-12-07T12:25:57.337Z,982.46
2016-12-07T12:26:57.341Z,982.44
2016-12-07T12:27:57.333Z,982.44
2016-12-07T12:28:57.333Z,982.46
2016-12-07T12:29:57.477Z,982.47
2016-12-07T12:30:57.329Z,982.45
2016-12-07T12:31:57.325Z,982.45
2016-12-07T12:32:57.321Z,982.43
2016-12-07T12:33:57.321Z,982.4
2016-12-07T12:34:57.317Z,982.42
2016-12-07T12:35:57.313Z,982.44